sensor_id;sensor_type;location;lat;lon;timestamp;P1;durP1;ratioP1;P2;durP2;ratioP2
36547;SDS011;22551;52.206;4.856;2022-07-12T00:00:16;2.67;;;2.30;;
36547;SDS011;22551;52.206;4.856;2022-07-12T00:05:18;2.28;;;1.80;;
36547;SDS011;22551;52.206;4.856;2022-07-12T00:10:20;2.83;;;2.15;;
36547;SDS011;22551;52.206;4.856;2022-07-12T00:15:24;3.80;;;2.28;;
36547;SDS011;22551;52.206;4.856;2022-07-12T00:20:26;3.78;;;2.88;;
36547;SDS011;22551;52.206;4.856;2022-07-12T00:25:30;5.25;;;2.67;;
36547;SDS011;22551;52.206;4.856;2022-07-12T00:30:34;3.20;;;2.15;;
36547;SDS011;22551;52.206;4.856;2022-07-12T00:35:36;3.22;;;2.53;;
36547;SDS011;22551;52.206;4.856;2022-07-12T00:40:38;3.17;;;2.47;;
36547;SDS011;22551;52.206;4.856;2022-07-12T00:45:42;3.80;;;2.20;;
36547;SDS011;22551;52.206;4.856;2022-07-12T00:50:44;3.22;;;2.60;;
36547;SDS011;22551;52.206;4.856;2022-07-12T00:55:46;4.10;;;3.05;;
36547;SDS011;22551;52.206;4.856;2022-07-12T01:00:49;5.65;;;2.33;;
36547;SDS011;22551;52.206;4.856;2022-07-12T01:05:52;2.78;;;2.55;;
36547;SDS011;22551;52.206;4.856;2022-07-12T01:10:54;3.60;;;3.05;;
36547;SDS011;22551;52.206;4.856;2022-07-12T01:15:59;3.92;;;2.90;;
36547;SDS011;22551;52.206;4.856;2022-07-12T01:21:03;3.88;;;2.88;;
36547;SDS011;22551;52.206;4.856;2022-07-12T01:26:07;4.95;;;2.97;;
36547;SDS011;22551;52.206;4.856;2022-07-12T01:31:09;6.40;;;2.90;;
36547;SDS011;22551;52.206;4.856;2022-07-12T01:36:11;4.57;;;2.78;;
36547;SDS011;22551;52.206;4.856;2022-07-12T01:41:15;4.03;;;3.00;;
36547;SDS011;22551;52.206;4.856;2022-07-12T01:51:21;3.60;;;2.53;;
36547;SDS011;22551;52.206;4.856;2022-07-12T01:56:24;3.22;;;2.15;;
36547;SDS011;22551;52.206;4.856;2022-07-12T02:01:26;2.60;;;2.30;;
36547;SDS011;22551;52.206;4.856;2022-07-12T02:06:29;4.88;;;2.20;;
36547;SDS011;22551;52.206;4.856;2022-07-12T02:11:33;2.28;;;1.92;;
36547;SDS011;22551;52.206;4.856;2022-07-12T02:16:35;1.80;;;1.60;;
36547;SDS011;22551;52.206;4.856;2022-07-12T02:21:37;2.65;;;2.20;;
36547;SDS011;22551;52.206;4.856;2022-07-12T02:26:41;3.30;;;2.13;;
36547;SDS011;22551;52.206;4.856;2022-07-12T02:31:44;4.88;;;2.38;;
36547;SDS011;22551;52.206;4.856;2022-07-12T02:36:46;3.13;;;2.42;;
36547;SDS011;22551;52.206;4.856;2022-07-12T02:41:51;2.85;;;2.33;;
36547;SDS011;22551;52.206;4.856;2022-07-12T02:46:53;3.35;;;2.42;;
36547;SDS011;22551;52.206;4.856;2022-07-12T02:51:55;3.90;;;2.47;;
36547;SDS011;22551;52.206;4.856;2022-07-12T02:56:58;2.63;;;2.40;;
36547;SDS011;22551;52.206;4.856;2022-07-12T03:02:03;3.00;;;2.70;;
36547;SDS011;22551;52.206;4.856;2022-07-12T03:07:05;3.20;;;2.23;;
36547;SDS011;22551;52.206;4.856;2022-07-12T03:12:09;2.55;;;2.35;;
36547;SDS011;22551;52.206;4.856;2022-07-12T03:17:12;3.45;;;2.47;;
36547;SDS011;22551;52.206;4.856;2022-07-12T03:22:14;2.95;;;2.50;;
36547;SDS011;22551;52.206;4.856;2022-07-12T03:27:18;3.47;;;2.78;;
36547;SDS011;22551;52.206;4.856;2022-07-12T03:32:20;2.70;;;1.88;;
36547;SDS011;22551;52.206;4.856;2022-07-12T03:37:23;3.20;;;2.60;;
36547;SDS011;22551;52.206;4.856;2022-07-12T03:42:26;3.85;;;2.40;;
36547;SDS011;22551;52.206;4.856;2022-07-12T03:47:31;2.67;;;2.25;;
36547;SDS011;22551;52.206;4.856;2022-07-12T03:52:35;2.35;;;1.92;;
36547;SDS011;22551;52.206;4.856;2022-07-12T03:57:38;5.75;;;3.15;;
36547;SDS011;22551;52.206;4.856;2022-07-12T04:02:41;2.67;;;2.45;;
36547;SDS011;22551;52.206;4.856;2022-07-12T04:07:43;4.50;;;2.78;;
36547;SDS011;22551;52.206;4.856;2022-07-12T04:12:47;2.95;;;2.47;;
36547;SDS011;22551;52.206;4.856;2022-07-12T04:17:49;4.03;;;2.97;;
36547;SDS011;22551;52.206;4.856;2022-07-12T04:22:51;3.58;;;3.13;;
36547;SDS011;22551;52.206;4.856;2022-07-12T04:27:55;4.55;;;3.67;;
36547;SDS011;22551;52.206;4.856;2022-07-12T04:33:00;4.65;;;3.80;;
36547;SDS011;22551;52.206;4.856;2022-07-12T04:38:02;5.80;;;4.07;;
36547;SDS011;22551;52.206;4.856;2022-07-12T04:43:06;5.20;;;3.92;;
36547;SDS011;22551;52.206;4.856;2022-07-12T04:48:11;5.88;;;4.10;;
36547;SDS011;22551;52.206;4.856;2022-07-12T04:53:13;7.13;;;4.53;;
36547;SDS011;22551;52.206;4.856;2022-07-12T04:58:20;6.27;;;5.10;;
36547;SDS011;22551;52.206;4.856;2022-07-12T05:03:22;6.55;;;5.32;;
36547;SDS011;22551;52.206;4.856;2022-07-12T05:08:26;7.35;;;4.05;;
36547;SDS011;22551;52.206;4.856;2022-07-12T05:13:32;6.05;;;5.00;;
36547;SDS011;22551;52.206;4.856;2022-07-12T05:29:13;9.15;;;5.30;;
36547;SDS011;22551;52.206;4.856;2022-07-12T05:34:15;6.90;;;4.93;;
36547;SDS011;22551;52.206;4.856;2022-07-12T05:39:17;8.13;;;6.38;;
36547;SDS011;22551;52.206;4.856;2022-07-12T05:44:20;11.07;;;7.80;;
36547;SDS011;22551;52.206;4.856;2022-07-12T05:49:22;9.05;;;7.13;;
36547;SDS011;22551;52.206;4.856;2022-07-12T05:54:24;10.00;;;8.27;;
36547;SDS011;22551;52.206;4.856;2022-07-12T05:59:28;10.95;;;7.70;;
36547;SDS011;22551;52.206;4.856;2022-07-12T06:04:31;10.00;;;7.50;;
36547;SDS011;22551;52.206;4.856;2022-07-12T06:09:33;12.30;;;7.75;;
36547;SDS011;22551;52.206;4.856;2022-07-12T06:14:36;10.05;;;6.93;;
36547;SDS011;22551;52.206;4.856;2022-07-12T06:19:39;8.40;;;6.07;;
36547;SDS011;22551;52.206;4.856;2022-07-12T06:24:41;12.80;;;7.75;;
36547;SDS011;22551;52.206;4.856;2022-07-12T06:29:44;11.25;;;7.28;;
36547;SDS011;22551;52.206;4.856;2022-07-12T06:34:48;10.10;;;7.22;;
36547;SDS011;22551;52.206;4.856;2022-07-12T06:39:50;9.15;;;7.20;;
36547;SDS011;22551;52.206;4.856;2022-07-12T06:44:54;9.63;;;6.82;;
36547;SDS011;22551;52.206;4.856;2022-07-12T06:49:56;8.85;;;6.88;;
36547;SDS011;22551;52.206;4.856;2022-07-12T06:54:58;8.55;;;6.97;;
36547;SDS011;22551;52.206;4.856;2022-07-12T07:00:03;7.50;;;5.57;;
36547;SDS011;22551;52.206;4.856;2022-07-12T07:05:07;7.68;;;5.80;;
36547;SDS011;22551;52.206;4.856;2022-07-12T07:10:11;10.25;;;5.15;;
36547;SDS011;22551;52.206;4.856;2022-07-12T07:15:14;7.68;;;4.72;;
36547;SDS011;22551;52.206;4.856;2022-07-12T07:20:17;8.48;;;5.00;;
36547;SDS011;22551;52.206;4.856;2022-07-12T07:25:19;3.65;;;3.20;;
36547;SDS011;22551;52.206;4.856;2022-07-12T07:30:22;5.82;;;4.82;;
36547;SDS011;22551;52.206;4.856;2022-07-12T07:35:42;6.93;;;4.95;;
36547;SDS011;22551;52.206;4.856;2022-07-12T07:40:44;7.03;;;4.45;;
36547;SDS011;22551;52.206;4.856;2022-07-12T07:45:48;6.00;;;4.03;;
36547;SDS011;22551;52.206;4.856;2022-07-12T07:50:51;3.47;;;3.17;;
36547;SDS011;22551;52.206;4.856;2022-07-12T07:55:54;4.47;;;3.70;;
36547;SDS011;22551;52.206;4.856;2022-07-12T08:00:58;3.83;;;3.17;;
36547;SDS011;22551;52.206;4.856;2022-07-12T08:11:02;8.23;;;2.90;;
36547;SDS011;22551;52.206;4.856;2022-07-12T08:16:06;5.23;;;3.33;;
36547;SDS011;22551;52.206;4.856;2022-07-12T08:21:08;3.45;;;3.00;;
36547;SDS011;22551;52.206;4.856;2022-07-12T08:26:11;5.68;;;2.65;;
36547;SDS011;22551;52.206;4.856;2022-07-12T08:31:14;3.23;;;2.70;;
36547;SDS011;22551;52.206;4.856;2022-07-12T08:36:17;3.40;;;2.10;;
36547;SDS011;22551;52.206;4.856;2022-07-12T08:41:19;3.07;;;2.40;;
36547;SDS011;22551;52.206;4.856;2022-07-12T08:46:23;4.30;;;3.90;;
36547;SDS011;22551;52.206;4.856;2022-07-12T08:51:25;3.80;;;3.20;;
36547;SDS011;22551;52.206;4.856;2022-07-12T08:56:32;3.20;;;2.80;;
36547;SDS011;22551;52.206;4.856;2022-07-12T09:01:40;5.45;;;3.22;;
36547;SDS011;22551;52.206;4.856;2022-07-12T09:06:44;3.70;;;2.83;;
36547;SDS011;22551;52.206;4.856;2022-07-12T09:11:47;5.75;;;3.30;;
36547;SDS011;22551;52.206;4.856;2022-07-12T09:17:00;2.20;;;1.97;;
36547;SDS011;22551;52.206;4.856;2022-07-12T09:22:12;4.45;;;2.47;;
36547;SDS011;22551;52.206;4.856;2022-07-12T09:27:23;4.07;;;3.03;;
36547;SDS011;22551;52.206;4.856;2022-07-12T09:32:28;2.80;;;2.50;;
36547;SDS011;22551;52.206;4.856;2022-07-12T09:37:47;2.88;;;2.53;;
36547;SDS011;22551;52.206;4.856;2022-07-12T09:42:50;4.18;;;3.38;;
36547;SDS011;22551;52.206;4.856;2022-07-12T09:47:53;6.68;;;2.72;;
36547;SDS011;22551;52.206;4.856;2022-07-12T09:52:57;5.40;;;2.55;;
36547;SDS011;22551;52.206;4.856;2022-07-12T09:58:01;4.03;;;3.42;;
36547;SDS011;22551;52.206;4.856;2022-07-12T10:03:06;3.67;;;2.63;;
36547;SDS011;22551;52.206;4.856;2022-07-12T10:08:09;4.40;;;2.72;;
36547;SDS011;22551;52.206;4.856;2022-07-12T10:13:11;1.75;;;1.65;;
36547;SDS011;22551;52.206;4.856;2022-07-12T10:18:19;3.92;;;2.15;;
36547;SDS011;22551;52.206;4.856;2022-07-12T10:28:55;2.53;;;1.70;;
36547;SDS011;22551;52.206;4.856;2022-07-12T10:34:12;2.08;;;1.40;;
36547;SDS011;22551;52.206;4.856;2022-07-12T10:39:16;1.95;;;1.40;;
36547;SDS011;22551;52.206;4.856;2022-07-12T10:44:26;3.08;;;2.10;;
36547;SDS011;22551;52.206;4.856;2022-07-12T10:49:37;1.92;;;1.70;;
36547;SDS011;22551;52.206;4.856;2022-07-12T10:54:40;2.50;;;1.40;;
36547;SDS011;22551;52.206;4.856;2022-07-12T10:59:50;4.20;;;2.20;;
36547;SDS011;22551;52.206;4.856;2022-07-12T11:04:56;3.20;;;2.47;;
36547;SDS011;22551;52.206;4.856;2022-07-12T11:09:59;1.80;;;1.70;;
36547;SDS011;22551;52.206;4.856;2022-07-12T11:15:01;2.08;;;1.75;;
36547;SDS011;22551;52.206;4.856;2022-07-12T11:20:09;2.45;;;1.35;;
36547;SDS011;22551;52.206;4.856;2022-07-12T11:25:13;2.42;;;1.23;;
36547;SDS011;22551;52.206;4.856;2022-07-12T11:30:15;1.70;;;1.60;;
36547;SDS011;22551;52.206;4.856;2022-07-12T11:35:19;3.13;;;1.70;;
36547;SDS011;22551;52.206;4.856;2022-07-12T11:40:23;1.00;;;1.00;;
36547;SDS011;22551;52.206;4.856;2022-07-12T11:45:28;0.95;;;0.95;;
36547;SDS011;22551;52.206;4.856;2022-07-12T11:50:32;1.50;;;0.93;;
36547;SDS011;22551;52.206;4.856;2022-07-12T11:55:40;1.85;;;0.90;;
36547;SDS011;22551;52.206;4.856;2022-07-12T12:00:43;1.00;;;0.80;;
36547;SDS011;22551;52.206;4.856;2022-07-12T12:05:48;4.85;;;2.30;;
36547;SDS011;22551;52.206;4.856;2022-07-12T12:10:53;2.40;;;1.20;;
36547;SDS011;22551;52.206;4.856;2022-07-12T12:15:57;1.75;;;1.23;;
36547;SDS011;22551;52.206;4.856;2022-07-12T12:21:03;2.13;;;1.17;;
36547;SDS011;22551;52.206;4.856;2022-07-12T12:26:13;4.88;;;1.90;;
36547;SDS011;22551;52.206;4.856;2022-07-12T12:31:20;2.08;;;1.63;;
36547;SDS011;22551;52.206;4.856;2022-07-12T12:36:25;2.03;;;1.65;;
36547;SDS011;22551;52.206;4.856;2022-07-12T12:41:29;4.50;;;1.40;;
36547;SDS011;22551;52.206;4.856;2022-07-12T12:46:43;1.20;;;1.10;;
36547;SDS011;22551;52.206;4.856;2022-07-12T12:51:54;1.88;;;1.23;;
36547;SDS011;22551;52.206;4.856;2022-07-12T12:56:58;6.83;;;1.63;;
36547;SDS011;22551;52.206;4.856;2022-07-12T13:02:00;1.98;;;1.88;;
36547;SDS011;22551;52.206;4.856;2022-07-12T13:07:07;3.50;;;1.45;;
36547;SDS011;22551;52.206;4.856;2022-07-12T13:12:09;1.83;;;1.20;;
36547;SDS011;22551;52.206;4.856;2022-07-12T13:17:11;1.77;;;1.30;;
36547;SDS011;22551;52.206;4.856;2022-07-12T13:22:15;5.43;;;1.90;;
36547;SDS011;22551;52.206;4.856;2022-07-12T13:27:17;2.63;;;1.08;;
36547;SDS011;22551;52.206;4.856;2022-07-12T13:32:19;1.10;;;1.00;;
36547;SDS011;22551;52.206;4.856;2022-07-12T13:37:23;2.78;;;1.15;;
36547;SDS011;22551;52.206;4.856;2022-07-12T13:42:25;3.63;;;1.15;;
36547;SDS011;22551;52.206;4.856;2022-07-12T13:47:27;1.20;;;1.10;;
36547;SDS011;22551;52.206;4.856;2022-07-12T13:52:31;3.45;;;1.60;;
36547;SDS011;22551;52.206;4.856;2022-07-12T13:57:33;2.75;;;1.38;;
36547;SDS011;22551;52.206;4.856;2022-07-12T14:02:37;1.75;;;1.10;;
36547;SDS011;22551;52.206;4.856;2022-07-12T14:07:42;1.92;;;1.30;;
36547;SDS011;22551;52.206;4.856;2022-07-12T14:12:45;1.45;;;1.10;;
36547;SDS011;22551;52.206;4.856;2022-07-12T14:17:49;1.52;;;1.20;;
36547;SDS011;22551;52.206;4.856;2022-07-12T14:22:53;3.20;;;1.10;;
36547;SDS011;22551;52.206;4.856;2022-07-12T14:27:56;2.13;;;1.42;;
36547;SDS011;22551;52.206;4.856;2022-07-12T14:32:58;1.07;;;1.00;;
36547;SDS011;22551;52.206;4.856;2022-07-12T14:38:01;1.93;;;1.80;;
36547;SDS011;22551;52.206;4.856;2022-07-12T14:43:03;2.05;;;1.50;;
36547;SDS011;22551;52.206;4.856;2022-07-12T14:48:05;2.87;;;1.70;;
36547;SDS011;22551;52.206;4.856;2022-07-12T14:53:09;2.57;;;1.47;;
36547;SDS011;22551;52.206;4.856;2022-07-12T14:58:11;2.10;;;1.83;;
36547;SDS011;22551;52.206;4.856;2022-07-12T15:03:13;1.87;;;1.53;;
36547;SDS011;22551;52.206;4.856;2022-07-12T15:08:16;4.60;;;3.35;;
36547;SDS011;22551;52.206;4.856;2022-07-12T15:13:19;4.22;;;3.05;;
36547;SDS011;22551;52.206;4.856;2022-07-12T15:18:21;4.97;;;3.37;;
36547;SDS011;22551;52.206;4.856;2022-07-12T15:23:25;6.93;;;3.10;;
36547;SDS011;22551;52.206;4.856;2022-07-12T15:28:28;5.45;;;3.20;;
36547;SDS011;22551;52.206;4.856;2022-07-12T15:33:30;4.38;;;3.75;;
36547;SDS011;22551;52.206;4.856;2022-07-12T15:38:34;5.50;;;3.60;;
36547;SDS011;22551;52.206;4.856;2022-07-12T15:43:36;7.07;;;2.92;;
36547;SDS011;22551;52.206;4.856;2022-07-12T15:48:39;9.65;;;3.55;;
36547;SDS011;22551;52.206;4.856;2022-07-12T15:53:43;4.00;;;3.30;;
36547;SDS011;22551;52.206;4.856;2022-07-12T15:58:45;6.28;;;3.65;;
36547;SDS011;22551;52.206;4.856;2022-07-12T16:03:47;4.93;;;2.93;;
36547;SDS011;22551;52.206;4.856;2022-07-12T16:08:51;6.15;;;3.35;;
36547;SDS011;22551;52.206;4.856;2022-07-12T16:13:53;3.17;;;2.63;;
36547;SDS011;22551;52.206;4.856;2022-07-12T16:18:56;9.23;;;2.75;;
36547;SDS011;22551;52.206;4.856;2022-07-12T16:23:59;7.17;;;2.70;;
36547;SDS011;22551;52.206;4.856;2022-07-12T16:29:01;3.63;;;2.97;;
36547;SDS011;22551;52.206;4.856;2022-07-12T16:34:04;6.70;;;2.57;;
36547;SDS011;22551;52.206;4.856;2022-07-12T16:39:07;4.37;;;2.67;;
36547;SDS011;22551;52.206;4.856;2022-07-12T16:44:11;4.55;;;2.90;;
36547;SDS011;22551;52.206;4.856;2022-07-12T16:49:13;7.70;;;3.05;;
36547;SDS011;22551;52.206;4.856;2022-07-12T16:54:17;5.30;;;2.90;;
36547;SDS011;22551;52.206;4.856;2022-07-12T16:59:19;5.60;;;3.85;;
36547;SDS011;22551;52.206;4.856;2022-07-12T17:04:22;5.43;;;3.40;;
36547;SDS011;22551;52.206;4.856;2022-07-12T17:09:25;5.47;;;2.27;;
36547;SDS011;22551;52.206;4.856;2022-07-12T17:14:29;3.58;;;2.35;;
36547;SDS011;22551;52.206;4.856;2022-07-12T17:19:31;3.50;;;2.77;;
36547;SDS011;22551;52.206;4.856;2022-07-12T17:24:35;4.72;;;2.88;;
36547;SDS011;22551;52.206;4.856;2022-07-12T17:29:37;6.32;;;3.30;;
36547;SDS011;22551;52.206;4.856;2022-07-12T17:34:39;11.13;;;3.42;;
36547;SDS011;22551;52.206;4.856;2022-07-12T17:39:42;11.80;;;4.82;;
36547;SDS011;22551;52.206;4.856;2022-07-12T17:44:45;6.47;;;4.82;;
36547;SDS011;22551;52.206;4.856;2022-07-12T17:49:53;21.30;;;12.05;;
36547;SDS011;22551;52.206;4.856;2022-07-12T17:55:00;6.60;;;4.43;;
36547;SDS011;22551;52.206;4.856;2022-07-12T18:00:04;4.88;;;2.97;;
36547;SDS011;22551;52.206;4.856;2022-07-12T18:05:10;4.50;;;3.28;;
36547;SDS011;22551;52.206;4.856;2022-07-12T18:10:13;6.43;;;3.97;;
36547;SDS011;22551;52.206;4.856;2022-07-12T18:15:15;7.50;;;3.45;;
36547;SDS011;22551;52.206;4.856;2022-07-12T18:20:17;4.53;;;2.92;;
36547;SDS011;22551;52.206;4.856;2022-07-12T18:25:21;5.33;;;3.30;;
36547;SDS011;22551;52.206;4.856;2022-07-12T18:30:24;3.97;;;3.17;;
36547;SDS011;22551;52.206;4.856;2022-07-12T18:35:30;2.60;;;2.38;;
36547;SDS011;22551;52.206;4.856;2022-07-12T18:40:34;4.85;;;2.80;;
36547;SDS011;22551;52.206;4.856;2022-07-12T18:45:37;8.77;;;3.20;;
36547;SDS011;22551;52.206;4.856;2022-07-12T18:50:39;4.50;;;2.93;;
36547;SDS011;22551;52.206;4.856;2022-07-12T18:55:44;5.82;;;3.30;;
36547;SDS011;22551;52.206;4.856;2022-07-12T19:00:48;5.00;;;2.95;;
36547;SDS011;22551;52.206;4.856;2022-07-12T19:05:50;6.27;;;3.03;;
36547;SDS011;22551;52.206;4.856;2022-07-12T19:10:54;4.93;;;3.20;;
36547;SDS011;22551;52.206;4.856;2022-07-12T19:15:56;6.78;;;3.80;;
36547;SDS011;22551;52.206;4.856;2022-07-12T19:20:58;5.30;;;3.05;;
36547;SDS011;22551;52.206;4.856;2022-07-12T19:26:02;4.32;;;2.97;;
36547;SDS011;22551;52.206;4.856;2022-07-12T19:31:04;4.43;;;3.20;;
36547;SDS011;22551;52.206;4.856;2022-07-12T19:36:06;9.55;;;3.83;;
36547;SDS011;22551;52.206;4.856;2022-07-12T19:41:10;9.82;;;4.43;;
36547;SDS011;22551;52.206;4.856;2022-07-12T19:51:14;5.93;;;4.10;;
36547;SDS011;22551;52.206;4.856;2022-07-12T19:56:18;4.38;;;3.83;;
36547;SDS011;22551;52.206;4.856;2022-07-12T20:06:22;7.45;;;5.03;;
36547;SDS011;22551;52.206;4.856;2022-07-12T20:11:25;9.63;;;5.93;;
36547;SDS011;22551;52.206;4.856;2022-07-12T20:16:27;9.52;;;5.38;;
36547;SDS011;22551;52.206;4.856;2022-07-12T20:21:29;11.68;;;6.15;;
36547;SDS011;22551;52.206;4.856;2022-07-12T20:26:33;11.25;;;6.38;;
36547;SDS011;22551;52.206;4.856;2022-07-12T20:36:37;9.68;;;5.30;;
36547;SDS011;22551;52.206;4.856;2022-07-12T20:41:41;9.52;;;6.60;;
36547;SDS011;22551;52.206;4.856;2022-07-12T20:46:43;7.28;;;5.35;;
36547;SDS011;22551;52.206;4.856;2022-07-12T20:51:45;10.55;;;6.85;;
36547;SDS011;22551;52.206;4.856;2022-07-12T20:56:52;8.43;;;5.80;;
36547;SDS011;22551;52.206;4.856;2022-07-12T21:01:54;11.00;;;6.35;;
36547;SDS011;22551;52.206;4.856;2022-07-12T21:06:56;10.68;;;6.63;;
36547;SDS011;22551;52.206;4.856;2022-07-12T21:12:00;8.38;;;6.07;;
36547;SDS011;22551;52.206;4.856;2022-07-12T21:17:02;11.10;;;6.90;;
36547;SDS011;22551;52.206;4.856;2022-07-12T21:22:04;12.18;;;7.20;;
36547;SDS011;22551;52.206;4.856;2022-07-12T21:27:08;7.45;;;5.75;;
36547;SDS011;22551;52.206;4.856;2022-07-12T21:32:10;7.93;;;5.68;;
36547;SDS011;22551;52.206;4.856;2022-07-12T21:37:12;7.22;;;4.97;;
36547;SDS011;22551;52.206;4.856;2022-07-12T21:42:16;11.13;;;6.03;;
36547;SDS011;22551;52.206;4.856;2022-07-12T21:47:19;7.05;;;5.18;;
36547;SDS011;22551;52.206;4.856;2022-07-12T21:52:21;10.05;;;4.95;;
36547;SDS011;22551;52.206;4.856;2022-07-12T21:57:24;7.90;;;5.60;;
36547;SDS011;22551;52.206;4.856;2022-07-12T22:07:29;7.32;;;5.35;;
36547;SDS011;22551;52.206;4.856;2022-07-12T22:12:33;6.10;;;4.30;;
36547;SDS011;22551;52.206;4.856;2022-07-12T22:17:35;6.00;;;4.30;;
36547;SDS011;22551;52.206;4.856;2022-07-12T22:22:38;5.28;;;3.83;;
36547;SDS011;22551;52.206;4.856;2022-07-12T22:27:41;6.13;;;3.55;;
36547;SDS011;22551;52.206;4.856;2022-07-12T22:32:43;8.18;;;4.20;;
36547;SDS011;22551;52.206;4.856;2022-07-12T22:37:45;6.50;;;4.28;;
36547;SDS011;22551;52.206;4.856;2022-07-12T22:42:49;7.82;;;5.05;;
36547;SDS011;22551;52.206;4.856;2022-07-12T22:47:51;8.98;;;6.18;;
36547;SDS011;22551;52.206;4.856;2022-07-12T22:52:53;11.73;;;6.57;;
36547;SDS011;22551;52.206;4.856;2022-07-12T22:57:57;12.60;;;7.00;;
36547;SDS011;22551;52.206;4.856;2022-07-12T23:08:03;10.32;;;6.97;;
36547;SDS011;22551;52.206;4.856;2022-07-12T23:13:07;12.25;;;7.85;;
36547;SDS011;22551;52.206;4.856;2022-07-12T23:18:09;8.68;;;5.70;;
36547;SDS011;22551;52.206;4.856;2022-07-12T23:23:12;13.52;;;6.85;;
36547;SDS011;22551;52.206;4.856;2022-07-12T23:28:16;13.57;;;7.47;;
36547;SDS011;22551;52.206;4.856;2022-07-12T23:33:18;11.75;;;6.78;;
36547;SDS011;22551;52.206;4.856;2022-07-12T23:38:21;12.15;;;6.85;;
36547;SDS011;22551;52.206;4.856;2022-07-12T23:43:24;10.52;;;6.38;;
36547;SDS011;22551;52.206;4.856;2022-07-12T23:48:26;9.27;;;5.88;;
36547;SDS011;22551;52.206;4.856;2022-07-12T23:53:28;10.20;;;5.82;;
36547;SDS011;22551;52.206;4.856;2022-07-12T23:58:32;7.85;;;5.68;;
